Time;durP1;ratioP1;P1;durP2;ratioP2;P2;SDS_P1;SDS_P2;PMS_P1;PMS_P2;Temp;Humidity;BMP_temperature;BMP_pressure;BME280_temperature;BME280_humidity;BME280_pressure;Samples;Min_cycle;Max_cycle;Signal;HPM_P1;HPM_P2
2022/10/26 04:01:30;;;;;;;0.60;0.10;;;14.40;99.90;;;;;;5580662;23;20506;-77
2022/10/26 04:03:58;;;;;;;0.60;0.10;;;;;;;;;;4974432;28;20454;-77
2022/10/26 04:06:26;;;;;;;0.60;0.20;;;14.30;99.90;;;;;;4981705;28;20442;-77
2022/10/26 04:08:57;;;;;;;0.60;0.10;;;14.20;99.90;;;;;;4983923;28;20458;-77
2022/10/26 04:11:24;;;;;;;0.60;0.10;;;14.20;99.90;;;;;;4969434;28;20489;-77
2022/10/26 04:13:52;;;;;;;0.60;0.10;;;14.20;99.90;;;;;;4950026;28;20459;-77
2022/10/26 04:16:20;;;;;;;1.27;0.83;;;;;;;;;;4978870;23;20549;-73
2022/10/26 04:18:50;;;;;;;0.60;0.10;;;;;;;;;;4968447;28;20915;-72
2022/10/26 04:21:18;;;;;;;0.60;0.10;;;14.00;99.90;;;;;;4960322;28;20439;-72
2022/10/26 04:23:46;;;;;;;0.60;0.10;;;;;;;;;;4957253;29;20443;-73
2022/10/26 04:26:14;;;;;;;0.60;0.10;;;14.00;99.90;;;;;;4968550;28;20492;-73
2022/10/26 04:28:42;;;;;;;0.60;0.10;;;;;;;;;;4978707;28;20449;-73
2022/10/26 04:31:10;;;;;;;0.50;0.10;;;;;;;;;;4968943;28;21020;-73
2022/10/26 04:33:38;;;;;;;0.60;0.10;;;;;;;;;;4977266;28;20458;-73
2022/10/26 04:36:08;;;;;;;0.60;0.10;;;;;;;;;;4974243;28;20481;-73
2022/10/26 04:38:36;;;;;;;0.57;0.10;;;14.00;99.90;;;;;;4972477;28;20443;-74
2022/10/26 04:41:05;;;;;;;0.60;0.10;;;;;;;;;;4976989;28;20473;-74
2022/10/26 04:43:33;;;;;;;0.60;0.20;;;;;;;;;;4973695;28;20493;-74
2022/10/26 04:46:00;;;;;;;0.60;0.10;;;14.10;99.90;;;;;;4968463;28;20501;-73
2022/10/26 04:48:28;;;;;;;0.60;0.10;;;14.10;99.90;;;;;;4963050;28;21019;-73
2022/10/26 04:50:58;;;;;;;0.60;0.10;;;14.10;99.90;;;;;;4979205;28;20814;-72
2022/10/26 04:53:28;;;;;;;0.60;0.13;;;;;;;;;;4973553;28;20455;-73
2022/10/26 04:55:59;;;;;;;0.60;0.10;;;;;;;;;;4973649;28;20469;-73
2022/10/26 04:58:28;;;;;;;0.60;0.10;;;14.10;99.90;;;;;;4976854;28;20458;-72
2022/10/26 05:00:56;;;;;;;0.60;0.10;;;;;;;;;;4976983;28;20442;-73
2022/10/26 05:03:24;;;;;;;0.60;0.10;;;14.10;99.90;;;;;;4976111;28;20454;-73
2022/10/26 05:05:52;;;;;;;0.60;0.10;;;;;;;;;;4976877;28;20474;-73
2022/10/26 05:08:20;;;;;;;1.73;1.63;;;14.10;99.90;;;;;;4977194;28;20450;-73
2022/10/26 05:10:50;;;;;;;0.60;0.10;;;14.10;99.90;;;;;;4971095;28;20474;-73
2022/10/26 05:13:17;;;;;;;0.60;0.10;;;14.00;99.90;;;;;;4968501;28;20466;-73
2022/10/26 05:15:45;;;;;;;0.60;0.10;;;14.00;99.90;;;;;;4973670;28;20490;-73
2022/10/26 05:18:13;;;;;;;0.50;0.10;;;14.00;99.90;;;;;;4971922;28;20450;-73
2022/10/26 05:20:41;;;;;;;0.60;0.10;;;14.00;99.90;;;;;;4976749;28;20860;-73
2022/10/26 05:23:12;;;;;;;1.03;0.93;;;14.00;99.90;;;;;;4975850;28;20450;-73
2022/10/26 05:25:40;;;;;;;0.60;0.10;;;;;;;;;;4971803;28;20541;-73
2022/10/26 05:28:12;;;;;;;0.60;0.10;;;;;;;;;;4979027;28;20446;-73
2022/10/26 05:30:41;;;;;;;0.60;0.10;;;14.00;99.90;;;;;;4978133;28;20458;-72
2022/10/26 05:33:10;;;;;;;0.60;0.10;;;13.90;99.90;;;;;;4978992;28;20454;-73
2022/10/26 05:35:38;;;;;;;0.60;0.20;;;;;;;;;;4977550;28;20493;-73
2022/10/26 05:38:08;;;;;;;0.60;0.10;;;;;;;;;;4976470;28;20455;-73
2022/10/26 05:40:36;;;;;;;0.60;0.10;;;;;;;;;;4977843;28;20450;-73
2022/10/26 05:43:06;;;;;;;0.60;0.10;;;;;;;;;;4978718;28;20462;-73
2022/10/26 05:45:35;;;;;;;0.60;0.10;;;14.00;99.90;;;;;;4980238;28;20474;-74
2022/10/26 05:48:03;;;;;;;0.60;0.10;;;14.00;99.90;;;;;;4980892;28;20473;-73
2022/10/26 05:50:31;;;;;;;0.60;0.10;;;;;;;;;;4978465;28;20500;-73
2022/10/26 05:52:59;;;;;;;0.50;0.10;;;;;;;;;;4975377;28;20826;-73
2022/10/26 05:55:28;;;;;;;0.60;0.10;;;;;;;;;;4978832;28;20466;-73
2022/10/26 05:57:56;;;;;;;0.60;0.10;;;;;;;;;;4980014;28;20450;-73
2022/10/26 06:00:28;;;;;;;0.60;0.10;;;;;;;;;;4975741;28;20455;-73
2022/10/26 06:03:15;;;;;;;0.60;0.10;;;;;;;;;;4975385;28;20977;-73
2022/10/26 06:05:46;;;;;;;0.60;0.10;;;;;;;;;;4980782;28;20470;-73
2022/10/26 06:08:15;;;;;;;0.60;0.10;;;;;;;;;;4979043;28;20476;-73
2022/10/26 06:10:43;;;;;;;0.60;0.10;;;;;;;;;;4978110;28;20473;-72
2022/10/26 06:13:12;;;;;;;0.60;0.10;;;;;;;;;;4977652;28;20442;-72
2022/10/26 06:15:51;;;;;;;0.60;0.10;;;14.00;99.90;;;;;;4965808;28;20474;-73
2022/10/26 06:18:29;;;;;;;0.60;0.10;;;14.00;99.90;;;;;;4965198;28;20439;-73
2022/10/26 06:21:14;;;;;;;0.60;0.10;;;14.00;99.90;;;;;;4969413;28;21253;-73
2022/10/26 06:23:46;;;;;;;0.60;0.10;;;;;;;;;;4957312;29;20454;-72
2022/10/26 06:26:25;;;;;;;0.60;0.10;;;14.00;99.90;;;;;;4957511;28;20495;-73
2022/10/26 06:29:03;;;;;;;0.60;0.10;;;14.00;99.90;;;;;;4977570;28;20450;-73
2022/10/26 06:31:31;;;;;;;0.60;0.10;;;;;;;;;;4974086;28;20486;-74
2022/10/26 06:34:00;;;;;;;0.60;0.10;;;14.00;99.90;;;;;;4979627;28;20508;-74
2022/10/26 06:36:29;;;;;;;0.53;0.10;;;;;;;;;;4983963;28;20502;-73
2022/10/26 06:39:02;;;;;;;0.53;0.10;;;14.10;99.90;;;;;;4982818;28;20462;-74
2022/10/26 06:41:32;;;;;;;0.60;0.10;;;14.10;99.90;;;;;;4981716;28;20447;-73
2022/10/26 06:44:02;;;;;;;0.60;0.10;;;14.10;99.90;;;;;;4973860;28;20472;-73
2022/10/26 06:46:36;;;;;;;0.60;0.10;;;14.10;99.90;;;;;;4975846;28;20470;-73
2022/10/26 06:49:15;;;;;;;1.30;1.20;;;14.10;99.90;;;;;;4975331;28;20450;-74
2022/10/26 06:51:49;;;;;;;0.60;0.10;;;14.20;99.90;;;;;;4975825;28;20487;-73
2022/10/26 06:54:23;;;;;;;0.60;0.10;;;14.20;99.90;;;;;;4974423;28;20457;-73
2022/10/26 06:56:52;;;;;;;0.60;0.10;;;14.20;99.90;;;;;;4972782;28;20474;-73
2022/10/26 06:59:32;;;;;;;0.60;0.10;;;14.30;99.90;;;;;;4974270;28;20454;-74
2022/10/26 07:02:00;;;;;;;0.60;0.10;;;14.30;99.90;;;;;;4974883;28;20880;-74
2022/10/26 07:04:35;;;;;;;0.60;0.10;;;;;;;;;;4982846;28;20465;-74
2022/10/26 07:07:04;;;;;;;0.60;0.10;;;;;;;;;;4974552;28;20454;-73
2022/10/26 07:09:32;;;;;;;0.60;0.10;;;14.30;99.90;;;;;;4974467;28;20461;-74
2022/10/26 07:12:00;;;;;;;0.60;0.10;;;14.40;99.90;;;;;;4963159;28;20514;-76
2022/10/26 07:14:28;;;;;;;0.60;0.10;;;;;;;;;;4975221;28;20960;-75
2022/10/26 07:16:56;;;;;;;0.60;0.10;;;14.40;99.90;;;;;;4974447;28;20486;-74
2022/10/26 07:19:24;;;;;;;0.60;0.10;;;;;;;;;;4974099;28;20516;-75
2022/10/26 07:21:58;;;;;;;0.50;0.10;;;;;;;;;;4973394;28;20450;-74
2022/10/26 07:24:26;;;;;;;0.60;0.10;;;;;;;;;;4974478;28;20522;-74
2022/10/26 07:26:55;;;;;;;0.60;0.10;;;14.40;99.90;;;;;;4973944;28;20474;-74
2022/10/26 07:29:23;;;;;;;0.60;0.10;;;14.50;99.90;;;;;;4973588;28;20454;-74
2022/10/26 07:31:51;;;;;;;0.60;0.10;;;14.50;99.90;;;;;;4973905;28;20564;-74
2022/10/26 07:34:20;;;;;;;0.60;0.10;;;14.40;99.90;;;;;;4974154;28;20454;-75
2022/10/26 07:36:52;;;;;;;0.60;0.10;;;;;;;;;;4974444;28;20517;-76
2022/10/26 07:39:22;;;;;;;0.60;0.10;;;;;;;;;;4973418;28;20454;-75
2022/10/26 07:41:50;;;;;;;0.60;0.10;;;14.50;99.90;;;;;;4974515;28;20450;-76
2022/10/26 07:44:19;;;;;;;0.60;0.10;;;;;;;;;;4975315;28;21044;-76
2022/10/26 07:46:47;;;;;;;0.60;0.10;;;;;;;;;;4975362;28;20999;-76
2022/10/26 07:49:15;;;;;;;0.60;0.10;;;14.60;99.90;;;;;;4974969;28;20481;-74
2022/10/26 07:51:46;;;;;;;0.60;0.10;;;14.60;99.90;;;;;;4974489;28;20451;-74
2022/10/26 07:54:14;;;;;;;0.60;0.10;;;;;;;;;;4976942;28;20450;-75
2022/10/26 07:56:43;;;;;;;0.60;0.10;;;14.70;99.90;;;;;;4978822;28;20632;-75
2022/10/26 07:59:12;;;;;;;0.60;0.10;;;14.70;99.90;;;;;;4978347;28;20450;-74
2022/10/26 08:01:40;;;;;;;0.60;0.10;;;;;;;;;;4978417;28;20964;-73
2022/10/26 08:04:08;;;;;;;0.60;0.10;;;;;;;;;;4978449;28;20454;-74
2022/10/26 08:06:36;;;;;;;0.60;0.10;;;;;;;;;;4979650;28;20470;-75
2022/10/26 08:09:04;;;;;;;0.60;0.10;;;;;;;;;;4978980;28;20516;-75
2022/10/26 08:11:35;;;;;;;0.60;0.10;;;;;;;;;;4977838;28;20870;-74
2022/10/26 08:14:05;;;;;;;0.60;0.10;;;;;;;;;;4966010;28;20935;-75
2022/10/26 08:16:34;;;;;;;0.60;0.10;;;14.90;99.90;;;;;;4966079;28;20514;-75
2022/10/26 08:19:02;;;;;;;0.60;0.10;;;15.00;99.90;;;;;;4965112;28;20453;-76
2022/10/26 08:21:30;;;;;;;0.60;0.10;;;15.00;99.90;;;;;;4975559;28;20501;-75
2022/10/26 08:24:13;;;;;;;0.60;0.10;;;;;;;;;;4975748;28;20450;-81
2022/10/26 08:26:42;;;;;;;0.60;0.10;;;15.00;99.90;;;;;;4976431;28;20847;-75
2022/10/26 08:29:11;;;;;;;0.60;0.10;;;15.00;99.90;;;;;;4969349;28;20534;-74
2022/10/26 08:31:39;;;;;;;0.60;0.10;;;15.00;99.90;;;;;;4976547;28;20524;-77
2022/10/26 08:34:06;;;;;;;0.60;0.20;;;15.10;99.90;;;;;;4974481;28;20482;-76
2022/10/26 08:36:34;;;;;;;0.60;0.13;;;15.10;99.90;;;;;;4964361;28;21049;-76
2022/10/26 08:39:02;;;;;;;0.60;0.10;;;15.10;99.90;;;;;;4974277;28;20461;-75
2022/10/26 08:41:36;;;;;;;0.60;0.10;;;15.20;99.90;;;;;;4975667;28;20512;-76
2022/10/26 08:44:11;;;;;;;0.60;0.20;;;15.30;99.90;;;;;;4976024;28;20953;-76
2022/10/26 08:46:46;;;;;;;0.60;0.10;;;15.40;99.90;;;;;;4976123;28;20536;-75
2022/10/26 08:49:20;;;;;;;0.60;0.10;;;15.50;99.90;;;;;;4970166;28;20469;-76
2022/10/26 08:51:50;;;;;;;0.60;0.10;;;15.50;99.90;;;;;;4969113;28;20490;-74
2022/10/26 08:54:23;;;;;;;0.80;0.50;;;15.60;99.90;;;;;;4956617;29;20479;-76
2022/10/26 08:56:55;;;;;;;1.17;1.00;;;15.70;99.90;;;;;;4973670;28;20481;-77
2022/10/26 08:59:31;;;;;;;0.60;0.10;;;15.80;99.90;;;;;;4976705;28;20442;-74
2022/10/26 09:02:01;;;;;;;2.40;2.30;;;15.80;99.90;;;;;;4974112;28;20516;-77
2022/10/26 09:04:32;;;;;;;0.60;0.10;;;15.80;99.90;;;;;;4970504;28;20450;-71
2022/10/26 09:07:08;;;;;;;0.67;0.23;;;15.80;99.90;;;;;;4967570;28;20493;-72
2022/10/26 09:09:45;;;;;;;0.60;0.13;;;15.80;99.90;;;;;;4975249;28;20504;-72
2022/10/26 09:12:19;;;;;;;0.60;0.30;;;15.80;99.90;;;;;;4970274;28;20694;-70
2022/10/26 09:14:56;;;;;;;0.93;0.83;;;15.80;99.90;;;;;;4974051;28;20505;-71
2022/10/26 09:17:38;;;;;;;0.60;0.10;;;15.80;99.90;;;;;;4974974;28;20524;-71
2022/10/26 09:20:25;;;;;;;0.60;0.10;;;15.80;99.90;;;;;;4974666;28;20482;-71
2022/10/26 09:23:02;;;;;;;0.60;0.10;;;15.70;99.90;;;;;;4974567;28;20940;-73
2022/10/26 09:25:37;;;;;;;0.60;0.10;;;15.80;99.90;;;;;;4974612;28;20517;-72
2022/10/26 09:28:09;;;;;;;0.60;0.10;;;15.80;99.90;;;;;;4959807;28;20972;-76
2022/10/26 09:30:37;;;;;;;1.83;0.40;;;15.80;99.90;;;;;;4971003;28;20450;-74
2022/10/26 09:33:15;;;;;;;0.60;0.10;;;15.80;99.90;;;;;;4968686;28;20885;-72
2022/10/26 09:35:46;;;;;;;0.60;0.20;;;15.80;99.90;;;;;;4968694;28;20580;-72
2022/10/26 09:38:16;;;;;;;0.60;0.20;;;15.80;99.90;;;;;;4972678;28;20472;-72
2022/10/26 09:40:52;;;;;;;0.60;0.10;;;15.90;99.90;;;;;;4977423;28;20521;-78
2022/10/26 09:43:26;;;;;;;0.60;0.10;;;15.40;99.90;;;;;;4968207;28;20451;-77
2022/10/26 09:45:54;;;;;;;0.60;0.20;;;16.00;99.90;;;;;;4962504;28;20478;-77
2022/10/26 09:48:31;;;;;;;0.60;0.10;;;16.00;99.90;;;;;;4978515;28;20497;-78
2022/10/26 09:50:59;;;;;;;1.13;1.03;;;16.00;99.90;;;;;;4971366;28;20874;-78
2022/10/26 09:53:32;;;;;;;0.60;0.20;;;16.10;99.90;;;;;;4973128;28;20489;-77
2022/10/26 09:56:06;;;;;;;1.07;0.47;;;16.10;99.90;;;;;;4975854;28;21000;-75
2022/10/26 09:58:40;;;;;;;0.60;0.30;;;16.20;99.90;;;;;;4976117;28;20446;-76
2022/10/26 10:01:21;;;;;;;0.60;0.10;;;16.20;99.90;;;;;;4971035;28;20462;-76
2022/10/26 10:04:10;;;;;;;0.60;0.10;;;16.40;99.90;;;;;;4963708;28;20434;-76
2022/10/26 10:06:38;;;;;;;0.60;0.10;;;16.50;99.90;;;;;;4975200;28;20463;-77
2022/10/26 10:09:10;;;;;;;0.60;0.17;;;16.70;99.90;;;;;;4974863;28;20438;-76
2022/10/26 10:11:40;;;;;;;0.97;0.80;;;16.70;99.90;;;;;;4972899;28;20438;-78
2022/10/26 10:14:13;;;;;;;0.70;0.30;;;16.80;99.90;;;;;;4972909;28;20489;-76
2022/10/26 10:16:49;;;;;;;0.60;0.20;;;17.00;99.90;;;;;;4972152;28;20595;-77
2022/10/26 10:19:23;;;;;;;5.90;3.70;;;17.00;99.90;;;;;;4977143;23;20501;-73
2022/10/26 10:21:53;;;;;;;0.60;0.27;;;17.00;99.90;;;;;;4969662;28;20929;-71
2022/10/26 10:24:24;;;;;;;0.60;0.10;;;16.90;99.90;;;;;;4975682;28;20438;-72
2022/10/26 10:26:58;;;;;;;0.73;0.30;;;16.90;99.90;;;;;;4975122;28;20861;-73
2022/10/26 10:29:26;;;;;;;0.70;0.40;;;16.90;99.90;;;;;;4974582;28;20494;-73
2022/10/26 10:31:59;;;;;;;1.00;0.90;;;16.90;99.90;;;;;;4969873;28;20517;-73
2022/10/26 10:34:31;;;;;;;0.60;0.20;;;16.90;99.90;;;;;;4959726;28;21046;-73
2022/10/26 10:37:00;;;;;;;0.60;0.10;;;16.90;99.90;;;;;;4974979;28;20446;-72
2022/10/26 10:39:37;;;;;;;0.60;0.10;;;16.90;99.90;;;;;;4975114;28;20465;-74
2022/10/26 10:42:17;;;;;;;0.90;0.47;;;17.00;99.90;;;;;;4973814;28;20562;-73
2022/10/26 10:44:46;;;;;;;0.60;0.10;;;17.10;99.90;;;;;;4958833;28;20451;-73
2022/10/26 10:47:20;;;;;;;1.00;0.90;;;;;;;;;;4958696;28;20462;-73
2022/10/26 10:49:54;;;;;;;2.80;0.73;;;17.50;99.90;;;;;;4955531;29;20860;-72
2022/10/26 10:52:25;;;;;;;1.70;1.60;;;17.60;99.90;;;;;;4955401;29;20450;-73
2022/10/26 10:55:00;;;;;;;0.60;0.20;;;17.60;99.90;;;;;;4970473;28;20534;-74
2022/10/26 10:57:36;;;;;;;0.60;0.20;;;17.70;97.50;;;;;;4959201;28;20457;-73
2022/10/26 11:00:06;;;;;;;0.60;0.10;;;17.60;99.90;;;;;;4969257;28;20526;-73
2022/10/26 11:03:01;;;;;;;1.23;0.67;;;17.70;99.80;;;;;;4954085;29;20451;-73
2022/10/26 11:05:53;;;;;;;0.60;0.10;;;17.70;99.80;;;;;;4960316;28;20450;-72
2022/10/26 11:08:26;;;;;;;0.60;0.10;;;18.00;97.70;;;;;;4966441;28;20484;-73
2022/10/26 11:11:00;;;;;;;0.60;0.20;;;18.00;99.90;;;;;;4982134;28;20446;-74
2022/10/26 11:13:33;;;;;;;1.80;1.70;;;18.10;99.90;;;;;;4966344;28;20833;-74
2022/10/26 11:16:04;;;;;;;1.83;0.90;;;18.10;99.90;;;;;;4955818;29;20451;-74
2022/10/26 11:18:36;;;;;;;0.60;0.20;;;18.30;97.80;;;;;;4966735;28;20536;-76
2022/10/26 11:21:13;;;;;;;1.00;0.43;;;18.30;99.90;;;;;;4963924;28;20502;-75
2022/10/26 11:23:45;;;;;;;0.63;0.27;;;18.40;99.90;;;;;;4949924;29;20957;-74
2022/10/26 11:26:18;;;;;;;1.53;1.27;;;18.40;99.90;;;;;;4954391;29;20439;-73
2022/10/26 11:28:52;;;;;;;0.60;0.37;;;18.40;97.60;;;;;;4937001;28;20472;-75
2022/10/26 11:31:25;;;;;;;1.07;0.40;;;18.40;99.90;;;;;;4967760;28;20493;-75
2022/10/26 11:34:08;;;;;;;0.70;0.30;;;18.50;99.90;;;;;;4977001;28;20458;-76
2022/10/26 11:36:39;;;;;;;0.67;0.30;;;18.50;99.90;;;;;;4976773;28;20447;-73
2022/10/26 11:39:14;;;;;;;1.00;0.50;;;18.50;97.90;;;;;;4975625;28;20520;-76
2022/10/26 11:41:49;;;;;;;0.70;0.30;;;18.60;99.90;;;;;;4977325;28;20453;-75
2022/10/26 11:44:22;;;;;;;2.60;1.07;;;18.60;99.90;;;;;;4976239;28;20810;-75
2022/10/26 11:46:55;;;;;;;0.60;0.20;;;18.40;99.90;;;;;;4960695;28;20443;-75
2022/10/26 11:49:29;;;;;;;0.60;0.20;;;18.40;97.80;;;;;;4956393;29;20561;-75
2022/10/26 11:52:05;;;;;;;0.60;0.10;;;18.40;99.90;;;;;;4956672;29;20479;-75
2022/10/26 11:54:37;;;;;;;3.57;2.40;;;18.50;99.90;;;;;;4967820;28;20469;-76
2022/10/26 11:57:05;;;;;;;0.90;0.40;;;18.40;99.90;;;;;;4967561;28;20521;-76
2022/10/26 11:59:38;;;;;;;0.70;0.30;;;18.40;97.80;;;;;;4957244;29;21056;-75
2022/10/26 12:02:14;;;;;;;0.60;0.10;;;18.40;99.90;;;;;;4957887;29;20447;-73
2022/10/26 12:04:43;;;;;;;0.70;0.47;;;18.50;99.90;;;;;;4968887;28;20446;-75
2022/10/26 12:07:21;;;;;;;0.60;0.23;;;18.50;99.90;;;;;;4968492;28;20463;-74
2022/10/26 12:09:49;;;;;;;0.70;0.30;;;18.40;97.80;;;;;;4948518;28;20450;-74
2022/10/26 12:12:23;;;;;;;1.50;1.40;;;18.40;99.90;;;;;;4969404;28;20828;-76
2022/10/26 12:14:57;;;;;;;1.87;1.13;;;18.40;99.90;;;;;;4960594;29;20976;-75
2022/10/26 12:17:30;;;;;;;0.70;0.30;;;18.30;97.80;;;;;;4966338;28;20459;-73
2022/10/26 12:20:04;;;;;;;0.70;0.30;;;18.30;99.90;;;;;;4970955;28;20455;-75
2022/10/26 12:22:38;;;;;;;0.60;0.10;;;18.40;99.90;;;;;;4961593;29;20806;-72
2022/10/26 12:25:18;;;;;;;0.60;0.10;;;18.40;99.90;;;;;;4957091;29;20474;-74
2022/10/26 12:27:54;;;;;;;1.23;0.53;;;18.60;97.90;;;;;;4957800;28;20467;-75
2022/10/26 12:30:29;;;;;;;0.60;0.10;;;18.60;99.90;;;;;;4966382;28;20470;-74
2022/10/26 12:32:59;;;;;;;0.60;0.20;;;18.70;99.90;;;;;;4962264;28;20482;-74
2022/10/26 12:35:35;;;;;;;0.60;0.10;;;18.70;99.90;;;;;;4957168;29;20486;-75
2022/10/26 12:38:42;;;;;;;0.70;0.43;;;18.80;98.00;;;;;;4964230;28;20552;-75
2022/10/26 12:41:22;;;;;;;0.60;0.10;;;18.90;99.90;;;;;;4975180;28;20454;-74
2022/10/26 12:43:50;;;;;;;0.60;0.10;;;18.90;99.90;;;;;;4967608;28;20940;-75
2022/10/26 12:46:45;;;;;;;0.60;0.20;;;18.80;99.90;;;;;;4976014;28;20513;-73
2022/10/26 12:49:57;;;;;;;0.87;0.67;;;18.80;98.00;;;;;;4975168;28;20474;-74
2022/10/26 12:52:48;;;;;;;0.60;0.10;;;18.80;99.90;;;;;;4975884;28;20450;-75
2022/10/26 12:56:04;;;;;;;0.60;0.27;;;19.70;98.40;;;;;;4973426;28;20497;-76
2022/10/26 12:59:01;;;;;;;0.60;0.23;;;18.90;98.10;;;;;;4958710;28;20892;-73
2022/10/26 13:02:08;;;;;;;0.60;0.20;;;18.90;99.90;;;;;;4976661;28;20458;-75
2022/10/26 13:04:54;;;;;;;0.60;0.33;;;18.90;99.90;;;;;;4976317;28;20478;-75
2022/10/26 13:07:24;;;;;;;0.60;0.20;;;19.00;98.10;;;;;;4972229;28;20463;-73
2022/10/26 13:09:58;;;;;;;0.60;0.20;;;19.00;99.90;;;;;;4971345;28;20519;-73
2022/10/26 13:12:35;;;;;;;0.70;0.20;;;19.10;99.90;;;;;;4956429;28;20467;-74
2022/10/26 13:15:06;;;;;;;2.80;1.90;;;19.10;99.90;;;;;;4956736;29;20569;-74
2022/10/26 13:17:37;;;;;;;0.80;0.43;;;19.30;98.20;;;;;;4957802;28;20449;-75
2022/10/26 13:20:07;;;;;;;0.60;0.20;;;19.20;99.90;;;;;;4964428;28;20447;-73
2022/10/26 13:22:46;;;;;;;1.00;0.87;;;19.40;98.30;;;;;;4975412;28;20454;-74
2022/10/26 13:25:22;;;;;;;0.60;0.10;;;19.40;99.90;;;;;;4975544;28;20859;-73
2022/10/26 13:28:01;;;;;;;0.60;0.20;;;19.50;98.20;;;;;;4974958;28;20540;-73
2022/10/26 13:30:42;;;;;;;0.60;0.10;;;19.50;99.90;;;;;;4975094;28;20454;-74
2022/10/26 13:33:23;;;;;;;0.60;0.10;;;19.60;95.10;;;;;;4975101;28;20469;-74
2022/10/26 13:35:57;;;;;;;0.60;0.17;;;19.60;79.40;;;;;;4976072;28;20548;-73
2022/10/26 13:38:31;;;;;;;0.60;0.20;;;19.60;62.10;;;;;;4966263;28;20502;-75
2022/10/26 13:41:13;;;;;;;0.60;0.10;;;19.60;67.10;;;;;;4955592;28;20477;-74
2022/10/26 13:43:44;;;;;;;0.60;0.20;;;19.60;72.50;;;;;;4959947;28;20485;-75
2022/10/26 13:46:26;;;;;;;0.60;0.20;;;19.60;70.00;;;;;;4957277;28;20435;-76
2022/10/26 13:49:01;;;;;;;0.70;0.33;;;19.60;74.70;;;;;;4958420;28;20470;-75
2022/10/26 13:51:39;;;;;;;0.60;0.10;;;19.70;77.70;;;;;;4961709;28;20451;-74
2022/10/26 13:54:18;;;;;;;0.80;0.33;;;19.80;69.60;;;;;;4961032;29;20460;-76
2022/10/26 13:57:03;;;;;;;1.03;0.30;;;19.80;47.10;;;;;;4955990;29;20540;-75
2022/10/26 13:59:37;;;;;;;5.30;3.80;;;19.80;35.30;;;;;;4972397;28;20529;-75
2022/10/26 14:02:15;;;;;;;1.63;0.93;;;19.80;40.40;;;;;;4974684;28;20493;-74
2022/10/26 14:04:46;;;;;;;0.60;0.10;;;19.80;45.90;;;;;;4974886;28;20504;-73
2022/10/26 14:07:21;;;;;;;1.10;0.27;;;19.90;45.60;;;;;;4964713;28;20878;-74
2022/10/26 14:09:51;;;;;;;0.60;0.20;;;20.00;44.50;;;;;;4955695;28;20446;-75
2022/10/26 14:12:19;;;;;;;0.60;0.10;;;20.00;40.10;;;;;;4961729;28;20494;-74
2022/10/26 14:14:49;;;;;;;9.80;9.10;;;20.10;35.40;;;;;;4954846;29;20447;-75
2022/10/26 14:17:20;;;;;;;0.60;0.10;;;20.10;38.10;;;;;;4954480;28;20490;-76
2022/10/26 14:19:49;;;;;;;0.60;0.10;;;20.20;34.20;;;;;;4955174;28;20459;-75
2022/10/26 14:22:21;;;;;;;0.60;0.10;;;20.20;33.90;;;;;;4961347;28;20940;-73
2022/10/26 14:24:55;;;;;;;0.60;0.13;;;20.30;34.50;;;;;;4973984;28;20461;-73
2022/10/26 14:27:33;;;;;;;0.60;0.10;;;20.40;26.20;;;;;;4972913;28;20515;-74
2022/10/26 14:30:19;;;;;;;0.60;0.10;;;20.40;29.80;;;;;;4973060;28;20552;-74
2022/10/26 14:32:50;;;;;;;0.70;0.40;;;20.40;27.20;;;;;;4962530;28;20454;-72
2022/10/26 14:35:22;;;;;;;0.60;0.10;;;20.40;23.90;;;;;;4955042;29;20447;-76
2022/10/26 14:37:52;;;;;;;0.60;0.10;;;20.40;24.20;;;;;;4955181;29;20467;-76
2022/10/26 14:40:23;;;;;;;0.60;0.10;;;20.40;28.10;;;;;;4954450;29;20448;-75
2022/10/26 14:42:53;;;;;;;0.60;0.10;;;20.50;26.90;;;;;;4963052;28;20471;-74
2022/10/26 14:45:31;;;;;;;0.60;0.10;;;20.50;25.10;;;;;;4952404;29;20966;-75
2022/10/26 14:48:23;;;;;;;0.60;0.10;;;20.50;21.10;;;;;;4953472;29;20471;-73
2022/10/26 14:51:01;;;;;;;0.60;0.10;;;20.50;24.90;;;;;;4952687;29;20451;-73
2022/10/26 14:53:36;;;;;;;0.60;0.20;;;20.50;23.10;;;;;;4968593;28;20545;-74
2022/10/26 14:56:06;;;;;;;0.60;0.20;;;20.40;18.10;;;;;;4963612;28;20482;-72
2022/10/26 14:58:34;;;;;;;0.70;0.30;;;20.30;12.90;;;;;;4953347;29;20499;-74
2022/10/26 15:01:27;;;;;;;0.60;0.10;;;20.30;18.30;;;;;;4954884;29;20447;-75
2022/10/26 15:04:03;;;;;;;0.60;0.10;;;20.20;21.70;;;;;;4940708;28;20458;-74
2022/10/26 15:06:40;;;;;;;0.60;0.20;;;20.30;20.50;;;;;;4955239;29;20439;-74
2022/10/26 15:09:31;;;;;;;0.60;0.10;;;20.30;20.40;;;;;;4973445;28;20554;-74
2022/10/26 15:12:01;;;;;;;0.60;0.10;;;20.30;24.30;;;;;;4973697;28;20524;-76
2022/10/26 15:14:29;;;;;;;0.60;0.10;;;20.40;24.50;;;;;;4975257;28;20457;-75
2022/10/26 15:16:59;;;;;;;0.60;0.10;;;20.30;26.20;;;;;;4975092;28;20834;-78
2022/10/26 15:19:28;;;;;;;0.60;0.20;;;20.40;25.80;;;;;;4963598;28;20475;-78
2022/10/26 15:21:56;;;;;;;0.60;0.10;;;20.40;30.80;;;;;;4958102;29;20478;-77
2022/10/26 15:24:31;;;;;;;0.60;0.10;;;20.30;33.20;;;;;;4956655;29;20443;-75
2022/10/26 15:27:14;;;;;;;0.97;0.97;;;20.30;36.60;;;;;;4957112;28;20467;-77
2022/10/26 15:29:44;;;;;;;0.60;0.30;;;20.30;29.40;;;;;;4957527;29;20462;-76
2022/10/26 15:32:31;;;;;;;0.60;0.23;;;20.20;34.50;;;;;;4964085;28;20458;-76
2022/10/26 15:35:15;;;;;;;0.60;0.10;;;20.20;37.20;;;;;;4967526;28;20485;-77
2022/10/26 15:37:42;;;;;;;0.60;0.10;;;20.20;37.80;;;;;;4970480;28;20556;-76
2022/10/26 15:40:11;;;;;;;0.60;0.17;;;20.20;43.00;;;;;;4975128;28;20447;-78
2022/10/26 15:42:41;;;;;;;0.60;0.10;;;20.10;45.00;;;;;;4973777;28;20435;-75
2022/10/26 15:45:18;;;;;;;0.70;0.40;;;20.10;47.60;;;;;;4974082;28;20446;-76
2022/10/26 15:47:49;;;;;;;0.80;0.40;;;20.00;47.20;;;;;;4970436;28;20541;-75
2022/10/26 15:50:19;;;;;;;0.60;0.10;;;20.00;52.60;;;;;;4955671;29;20443;-78
2022/10/26 15:52:47;;;;;;;0.60;0.10;;;19.90;54.70;;;;;;4953930;29;20459;-77
2022/10/26 15:55:17;;;;;;;0.60;0.10;;;19.80;60.90;;;;;;4955040;29;20442;-76
2022/10/26 15:57:44;;;;;;;0.60;0.10;;;19.80;67.70;;;;;;4953702;29;20541;-77
2022/10/26 16:00:16;;;;;;;0.60;0.13;;;19.80;74.00;;;;;;4955320;29;20451;-76
2022/10/26 16:02:47;;;;;;;0.60;0.17;;;19.80;76.50;;;;;;4954789;29;20447;-76
2022/10/26 16:05:16;;;;;;;0.60;0.10;;;19.80;79.60;;;;;;4955303;29;20980;-76
2022/10/26 16:07:46;;;;;;;0.60;0.20;;;19.70;88.50;;;;;;4960267;28;20533;-77
2022/10/26 16:10:19;;;;;;;0.60;0.10;;;19.90;93.20;;;;;;4965338;28;20557;-76
2022/10/26 16:12:49;;;;;;;0.60;0.10;;;19.60;99.90;;;;;;4954644;29;20454;-76
2022/10/26 16:15:19;;;;;;;0.60;0.10;;;19.50;98.30;;;;;;4957752;28;20494;-76
2022/10/26 16:20:17;;;;;;;0.60;0.10;;;19.40;98.30;;;;;;4997641;23;20548;-77
2022/10/26 16:22:47;;;;;;;0.60;0.10;;;19.40;99.90;;;;;;4978541;28;20880;-77
2022/10/26 16:25:18;;;;;;;0.60;0.10;;;19.30;99.90;;;;;;4978543;28;20964;-77
2022/10/26 16:27:46;;;;;;;0.60;0.10;;;19.30;99.90;;;;;;4981320;28;20468;-77
2022/10/26 16:30:14;;;;;;;0.60;0.10;;;19.20;98.10;;;;;;4979486;28;20469;-77
2022/10/26 16:32:42;;;;;;;0.60;0.10;;;19.20;98.20;;;;;;4977703;28;20454;-78
2022/10/26 16:35:11;;;;;;;0.60;0.10;;;19.10;98.10;;;;;;4977238;28;20458;-78
2022/10/26 16:37:40;;;;;;;0.60;0.10;;;19.10;98.20;;;;;;4977798;28;20484;-76
2022/10/26 16:40:09;;;;;;;0.60;0.10;;;19.00;98.20;;;;;;4969838;28;20482;-77
2022/10/26 16:42:42;;;;;;;0.60;0.20;;;19.00;99.90;;;;;;4977314;28;20817;-78
2022/10/26 16:45:10;;;;;;;0.60;0.10;;;19.00;99.90;;;;;;4979513;28;20442;-77
2022/10/26 16:47:38;;;;;;;0.60;0.10;;;18.90;99.90;;;;;;4978920;28;20485;-78
2022/10/26 16:50:07;;;;;;;0.60;0.10;;;18.90;98.10;;;;;;4978398;28;20465;-76
2022/10/26 16:52:36;;;;;;;0.60;0.10;;;18.80;99.90;;;;;;4979527;28;20477;-76
2022/10/26 16:55:07;;;;;;;0.60;0.10;;;21.00;99.90;;;;;;4976019;28;20473;-79
2022/10/26 16:57:36;;;;;;;0.60;0.10;;;18.70;99.90;;;;;;4981061;28;21008;-78
2022/10/26 17:00:05;;;;;;;0.60;0.20;;;18.70;99.90;;;;;;4975191;28;20485;-77
2022/10/26 17:02:33;;;;;;;0.60;0.13;;;18.70;99.90;;;;;;4978129;28;20454;-76
2022/10/26 17:05:01;;;;;;;0.60;0.10;;;18.60;99.90;;;;;;4970421;28;20473;-78
2022/10/26 17:07:34;;;;;;;0.60;0.10;;;18.60;99.90;;;;;;4976687;28;20442;-76
2022/10/26 17:10:02;;;;;;;0.60;0.10;;;18.60;99.90;;;;;;4980134;28;20872;-77
2022/10/26 17:12:31;;;;;;;0.60;0.10;;;18.50;99.90;;;;;;4973791;28;20472;-77
2022/10/26 17:15:00;;;;;;;0.60;0.10;;;18.50;99.90;;;;;;4974309;28;20434;-75
2022/10/26 17:17:28;;;;;;;0.60;0.20;;;18.50;99.90;;;;;;4959885;28;20486;-74
2022/10/26 17:19:56;;;;;;;0.60;0.10;;;18.50;99.90;;;;;;4977127;28;20481;-73
2022/10/26 17:22:24;;;;;;;0.60;0.10;;;18.50;99.90;;;;;;4979378;28;20445;-72
2022/10/26 17:24:51;;;;;;;0.60;0.10;;;18.40;99.90;;;;;;4985979;28;20518;-74
2022/10/26 17:27:20;;;;;;;0.60;0.10;;;18.40;99.90;;;;;;4994115;28;20537;-73
2022/10/26 17:29:49;;;;;;;0.60;0.10;;;18.40;99.90;;;;;;4980734;28;20466;-74
2022/10/26 17:32:17;;;;;;;0.60;0.20;;;18.30;99.90;;;;;;4995394;28;20445;-75
2022/10/26 17:34:45;;;;;;;0.60;0.10;;;;;;;;;;4982845;28;20459;-73
2022/10/26 17:37:12;;;;;;;0.60;0.10;;;18.30;99.90;;;;;;4975303;28;20490;-73